Airfield :
LOGIN :

Register | Disclaimer

   EN    FR    IT 

 










Legend :    VFR   Marginal VFR   IFR   Intensive IFR   Very Intensive IFR
Visi :
Ceiling :
>= 8 km
>= 3000ft
5 to 8 km
1000 to 3000 ft
1500m to 5 km
500 to 1000 ft
800 to 1500m
200 to 500 ft
< 800m
< 200 ft
Symbols :   Thunderstorms  Fog  Heavy snow  Heavy precipitations  Wind > 20 kt
SIGMETs :     Misc.  Thunderstorms  Icing  Turbulence  Mountain Waves  Volcanic Ashes






- Airport Elevation : 24 ft
- IATA code : SGD


EKSB - Sonderborg

CURRENT METAR :
  • 112250Z AUTO 20003KT 4100NDV BR BKN006/// BKN017/// 06/05 Q1001

EXPIRED METARs :
  • 112220Z AUTO 18005KT 150V220 3700NDV BR BKN006/// BKN024/// BKN045/// 05/05 Q1001
  • 112150Z AUTO 19005KT 160V220 3900NDV BR SCT005/// 05/04 Q1001
  • 112120Z 19005KT 3500 BR SCT005 BKN046 05/04 Q1002
  • 112111Z 18005KT 4000 BR SCT005 BKN046 05/04 Q1002
  • 112050Z 18004KT 5000 BR SCT019 BKN046 05/04 Q1002
  • 112020Z 18004KT 150V210 5000 SCT012 BKN021 05/04 Q1002

Expired Forecast.



MET'MAP, your aeronautical weather chart ! - Copyright ORBIFLY December 2007 - Disclaimer

ORBIFLY MET'MAP TEAM :

Programming & Development : Alexandra Zaïnal
Concept & original design : Baudouin d'Aumeries
Assistance for programming : Marc-Olivier Méhu
Technical & hardware support : Manuel Goepfert

Contact : metmap@orbifly.com




SOURCES & CREDITS :

   NOAA